• Join FlightAware (Why Join?)
  • Login
  • US Flag 
12:15AM EST


 

Airport Tracker/Info


-or-


 

Live Flight TrackerFlight Track Log ✈ N662US ✈ 18-Apr-2013 ✈ KJFK - RJAA / NRT

Flight Track Log - Related Links

Times and Time Zones

All times are in EDT time to prevent confusion due to time zone crossing. See the N662US flight status page for this flight to view local times or setup timezone preferences in your user account.

Time Position Orientation Groundspeed Altitude Reporting Facility
EDT Latitude Longitude Course Direction KTS MPH feet Rate Location/Type
02:27PM 40.6290 -73.7820 119° Southeast 166 191 100  Level FlightAware
02:28PM 40.6170 -73.7630 130° Southeast 166 191 900 1,380 Climbing FlightAware
02:28PM 40.5970 -73.7430 143° Southeast 193 222 1,400 960 Climbing FlightAware
02:29PM 40.5770 -73.7140 132° Southeast 226 260 1,900 720 Climbing FlightAware
02:29PM 40.5750 -73.7010 101° East 240 276 1,900 720 Level FlightAware
02:30PM 40.5800 -73.6540 82° East 270 311 2,400 1,020 Climbing FlightAware
02:30PM 40.5900 -73.6340 57° Northeast 282 325 2,700 1,320 Climbing FlightAware
02:30PM 40.6200 -73.5940 45° Northeast 302 348 3,400 1,620 Climbing FlightAware
02:31PM 40.6440 -73.5620 45° Northeast 309 356 4,200 1,380 Climbing FlightAware
02:31PM 40.6750 -73.5200 46° Northeast 321 369 4,700 1,080 Climbing FlightAware
02:32PM 40.7000 -73.4880 44° Northeast 325 374 5,200 1,620 Climbing FlightAware
02:32PM 40.7170 -73.4640 47° Northeast 328 377 5,800 1,980 Climbing FlightAware
02:32PM 40.7510 -73.4230 42° Northeast 335 386 6,700 1,800 Climbing FlightAware
02:33PM 40.7650 -73.4150 23° Northeast 334 384 7,000 1,800 Climbing FlightAware
02:33PM 40.7810 -73.4120 North 331 381 7,300 1,980 Climbing FlightAware
02:33PM 40.8330 -73.4220 352° North 327 376 8,500 2,040 Climbing FlightAware
02:34PM 40.8540 -73.4270 350° North 328 377 9,000 2,100 Climbing FlightAware
02:34PM 40.8940 -73.4350 351° North 332 382 9,900 1,740 Climbing FlightAware
02:35PM 40.9540 -73.4510 349° North 340 391 10,900 1,560 Climbing FlightAware
02:35PM 40.9810 -73.4750 326° Northwest 335 386 11,500 1,500 Climbing FlightAware
02:36PM 41.0160 -73.5420 305° West 348 400 12,400 1,200 Climbing FlightAware
02:36PM 41.0540 -73.6210 303° West 376 433 13,100 960 Climbing FlightAware
02:37PM 41.0975 -73.7108 303° West 402 463 13,800 1,200 Climbing FlightAware ADS-B
02:38PM 41.1287 -73.7751 303° West 418 481 14,600 1,620 Climbing FlightAware ADS-B
02:38PM 41.1616 -73.8430 303° West 427 491 15,500 1,620 Climbing FlightAware ADS-B
02:39PM 41.1946 -73.9115 303° West 436 502 16,300 960 Climbing FlightAware ADS-B
02:39PM 41.2345 -73.9946 303° West 440 506 16,600 600 Climbing FlightAware ADS-B
02:40PM 41.2775 -74.0848 302° West 440 506 17,100 1,140 Climbing FlightAware ADS-B
02:40PM 41.3118 -74.1567 302° West 446 513 18,000 1,740 Climbing FlightAware ADS-B
02:41PM 41.3454 -74.2274 302° West 450 518 18,900 1,620 Climbing FlightAware ADS-B
02:41PM 41.3809 -74.3018 302° West 454 522 19,700 1,440 Climbing FlightAware ADS-B
02:42PM 41.4181 -74.3807 302° West 462 532 20,500 1,320 Climbing FlightAware ADS-B
02:43PM 41.4570 -74.4700 300° West 466 536 21,300 1,440 Climbing FlightAware
02:43PM 41.4806 -74.5256 300° West 466 536 21,900 1,500 Climbing FlightAware ADS-B
02:43PM 41.5136 -74.6025 300° West 473 544 22,600 1,440 Climbing FlightAware ADS-B
02:44PM 41.5482 -74.6821 300° West 475 547 23,400 1,380 Climbing FlightAware ADS-B
02:44PM 41.5854 -74.7646 301° West 478 550 24,100 1,200 Climbing FlightAware ADS-B
02:45PM 41.6499 -74.8540 314° West 489 563 24,900 1,080 Climbing FlightAware ADS-B
02:46PM 41.7250 -74.9370 320° Northwest 498 573 25,700 960 Climbing FlightAware
02:47PM 41.8030 -75.0220 321° Northwest 503 579 26,400 720 Climbing FlightAware
02:47PM 41.8720 -75.0970 321° Northwest 509 586 26,800 600 Climbing FlightAware
02:48PM 41.9530 -75.1890 320° Northwest 511 588 27,300 1,320 Climbing FlightAware
02:49PM 42.0200 -75.2620 321° Northwest 506 582 28,600 1,080 Climbing FlightAware
02:49PM 42.0970 -75.3460 321° Northwest 506 582 28,800 120 Climbing FlightAware
02:50PM 42.1590 -75.4140 321° Northwest 506 582 28,800  Level FlightAware
02:51PM 42.2210 -75.4820 321° Northwest 506 582 28,800 780 Level FlightAware
02:52PM 42.3580 -75.5460 341° North 505 581 30,000 780 Climbing FlightAware
02:52PM 42.4420 -75.6130 330° Northwest 504 580 30,000  Level FlightAware
02:53PM 42.5220 -75.6770 329° Northwest 505 581 30,000  Level FlightAware
02:54PM 42.6150 -75.7520 329° Northwest 506 582 30,000  Level FlightAware
02:54PM 42.6950 -75.8170 329° Northwest 507 583 30,000  Level FlightAware
02:55PM 42.7770 -75.8830 329° Northwest 510 587 30,000  Level FlightAware
02:56PM 42.8640 -75.9540 329° Northwest 511 588 30,000  Level FlightAware
02:56PM 42.9460 -76.0200 330° Northwest 509 586 30,000  Level FlightAware
02:57PM 43.0400 -76.0980 329° Northwest 508 585 30,000  Level FlightAware
02:58PM 43.1030 -76.1500 329° Northwest 507 583 30,000  Level FlightAware
02:58PM 43.2000 -76.2180 333° Northwest 516 594 30,000  Level FlightAware
02:59PM 43.3040 -76.2790 337° Northwest 514 592 30,000  Level FlightAware
03:00PM 43.3930 -76.3290 338° Northwest 514 592 30,000  Level FlightAware
03:01PM 43.4810 -76.3780 338° Northwest 515 593 30,000  Level FlightAware
03:01PM 43.5790 -76.4330 338° Northwest 515 593 30,000  Level FlightAware
03:02PM 43.6680 -76.4820 338° Northwest 514 592 30,000  Level FlightAware
03:03PM 43.7670 -76.5380 338° Northwest 514 592 30,000  Level FlightAware
03:03PM 43.8570 -76.5890 338° Northwest 515 593 30,000  Level FlightAware
03:04PM 43.9520 -76.6420 338° Northwest 517 595 30,000  Level FlightAware
03:05PM 44.0450 -76.6920 339° North 518 596 30,000  Level FlightAware
03:05PM 44.1350 -76.7410 339° North 520 598 30,000  Level FlightAware
03:06PM 44.2360 -76.7950 339° North 520 598 30,000  Level FlightAware
03:07PM 44.3110 -76.8370 338° Northwest 520 598 30,000  Level FlightAware
03:08PM 44.4240 -76.8990 339° North 517 595 30,000  Level FlightAware
03:08PM 44.5160 -76.9500 338° Northwest 514 592 30,000  Level FlightAware
03:09PM 44.6040 -76.9980 339° North 513 590 30,000  Level FlightAware
03:10PM 44.7020 -77.0530 338° Northwest 509 586 30,000  Level FlightAware
03:10PM 44.7900 -77.1030 338° Northwest 508 585 30,000  Level FlightAware
03:11PM 44.8800 -77.1530 339° North 507 583 30,000  Level FlightAware
03:12PM 44.9830 -77.1800 349° North 526 605 30,000  Level FlightAware
03:12PM 45.0500 -77.1780 North 527 606 30,000  Level FlightAware
03:13PM 45.1520 -77.1730 North 523 602 30,000  Level FlightAware
03:14PM 45.2470 -77.1680 North 525 604 30,000  Level FlightAware
03:14PM 45.3560 -77.1630 North 524 603 30,000  Level FlightAware
03:15PM 45.4530 -77.1600 North 524 603 30,000  Level FlightAware
03:16PM 45.5440 -77.1550 North 524 603 30,000  Level FlightAware
03:16PM 45.6550 -77.1480 North 523 602 30,000  Level FlightAware
03:17PM 45.7400 -77.1430 North 524 603 30,000  Level FlightAware
03:18PM 45.8590 -77.1360 North 526 605 30,000  Level FlightAware
03:19PM 45.9580 -77.1200 North 528 608 30,000  Level FlightAware
03:19PM 46.0840 -77.0980 North 529 609 30,000  Level FlightAware
03:20PM 46.2180 -77.0720 North 531 611 30,000  Level FlightAware
03:21PM 46.3010 -77.0570 North 531 611 30,000  Level FlightAware
03:22PM 46.3840 -77.0420 North 531 611 30,000  Level FlightAware
03:23PM 46.4880 -77.0240 North 531 611 30,000  Level FlightAware
03:23PM 46.5710 -77.0090 North 531 611 30,000  Level FlightAware
03:24PM 46.6540 -76.9940 North 531 611 30,000  Level FlightAware
03:25PM 46.7360 -76.9790 North 531 611 30,000  Level FlightAware
03:25PM 46.8190 -76.9640 North 531 611 30,000  Level FlightAware
03:26PM 46.9230 -76.9460 North 531 611 30,000  Level FlightAware
03:27PM 47.0060 -76.9310 North 531 611 30,000  Level FlightAware
03:27PM 47.0890 -76.9160 North 531 611 30,000  Level FlightAware
03:28PM 47.1720 -76.9010 North 531 611 30,000  Level FlightAware
03:29PM 47.2550 -76.8860 North 531 611 30,000  Level FlightAware
03:30PM 47.3580 -76.8670 North 531 611 30,000  Level FlightAware
03:30PM 47.5500 -77.3333 North 490 564 30,000  Level Montreal Center
03:31PM 47.6667 -77.4167 334° Northwest 490 564 30,000  Level Montreal Center
03:32PM 47.7833 -77.5167 330° Northwest 490 564 30,000  Level Montreal Center
03:33PM 47.9000 -77.6167 330° Northwest 490 564 30,000  Level Montreal Center
03:34PM 48.0167 -77.7167 330° Northwest 490 564 30,000  Level Montreal Center
03:35PM 48.1500 -77.8333 330° Northwest 480 552 30,000  Level Montreal Center
03:36PM 48.2667 -77.9167 335° Northwest 490 564 30,000  Level Montreal Center
03:37PM 48.3833 -78.0167 330° Northwest 490 564 30,000  Level Montreal Center
03:38PM 48.5000 -78.1167 330° Northwest 490 564 30,000  Level Montreal Center
03:39PM 48.6000 -78.2333 322° Northwest 480 552 30,000  Level Montreal Center
03:40PM 48.7333 -78.3167 338° Northwest 490 564 30,000  Level Montreal Center
03:41PM 48.8500 -78.4167 331° Northwest 490 564 30,000  Level Montreal Center
03:42PM 48.9667 -78.5333 327° Northwest 490 564 30,000  Level Montreal Center
03:43PM 49.0833 -78.6333 331° Northwest 480 552 30,000  Level Montreal Center
03:44PM 49.2167 -78.7500 330° Northwest 530 610 30,000  Level Montreal Center
03:45PM 49.3333 -78.8333 335° Northwest 450 518 30,000  Level Montreal Center
03:46PM 49.4500 -78.9333 331° Northwest 490 564 30,000  Level Montreal Center
03:47PM 49.5667 -79.0500 327° Northwest 490 564 30,000  Level Montreal Center
03:48PM 49.6833 -79.1333 335° Northwest 480 552 30,000  Level Montreal Center
03:49PM 49.8167 -79.2500 331° Northwest 490 564 30,000  Level Montreal Center
03:50PM 49.9167 -79.3667 323° Northwest 480 552 30,000  Level Montreal Center
03:51PM 50.0333 -79.4833 327° Northwest 480 552 30,000 -540 Level Montreal Center
03:52PM 50.1500 -79.5667 335° Northwest 490 564 29,000 -840 Descending Montreal Center
03:53PM 50.2833 -79.6833 331° Northwest 500 575 28,400 -720 Descending Montreal Center
03:54PM 50.3333 -79.7000 348° North 500 575 28,000 -900 Descending Toronto Center
03:54PM 50.4000 -79.8000 316° Northwest 490 564 27,500 -900 Descending Montreal Center
03:55PM 50.5333 -79.9167 331° Northwest 480 552 26,700 -780 Descending Montreal Center
03:56PM 50.5667 -79.9167 360° North 490 564 26,400 -840 Descending Toronto Center
03:56PM 50.6333 -80.0000 322° Northwest 480 552 25,900 -1,080 Descending Montreal Center
03:57PM 50.7500 -80.1167 328° Northwest 480 552 24,800 -960 Descending Montreal Center
03:58PM 50.8500 -80.2333 324° Northwest 480 552 24,000 -420 Descending Montreal Center
03:59PM 50.9833 -80.3167 339° North 490 564 24,000  Level Montreal Center
04:00PM 51.1000 -80.4500 324° Northwest 480 552 24,000  Level Montreal Center
04:01PM 51.2167 -80.5667 328° Northwest 480 552 24,000  Level Montreal Center
04:02PM 51.3333 -80.6833 328° Northwest 480 552 24,000  Level Montreal Center
04:03PM 51.4333 -80.7667 333° Northwest 470 541 24,000  Level Montreal Center
04:04PM 51.5500 -80.9000 325° Northwest 460 529 24,000  Level Montreal Center
04:05PM 51.6500 -81.0167 324° Northwest 480 552 24,000  Level Montreal Center
04:06PM 51.7833 -81.1333 332° Northwest 470 541 24,000  Level Montreal Center
04:07PM 51.8833 -81.2333 328° Northwest 470 541 24,000  Level Montreal Center
04:08PM 51.9833 -81.3500 324° Northwest 470 541 24,000  Level Montreal Center
04:09PM 52.1000 -81.4833 325° Northwest 480 552 24,000  Level Montreal Center
04:10PM 52.2167 -81.5667 336° Northwest 480 552 24,000  Level Montreal Center
04:11PM 52.3333 -81.7000 325° Northwest 480 552 24,000  Level Montreal Center
04:12PM 52.4333 -81.8167 325° Northwest 470 541 24,000  Level Montreal Center
04:13PM 52.5667 -81.9500 329° Northwest 490 564 24,000  Level Montreal Center
04:14PM 52.6667 -82.0833 321° Northwest 480 552 24,000  Level Montreal Center
04:15PM 52.7667 -82.1833 329° Northwest 480 552 24,000  Level Montreal Center
04:16PM 52.8833 -82.3000 329° Northwest 480 552 24,000  Level Montreal Center
04:17PM 53.0000 -82.4333 325° Northwest 480 552 24,000  Level Montreal Center
04:18PM 53.1167 -82.5667 326° Northwest 480 552 24,000  Level Montreal Center
04:19PM 53.2167 -82.6667 329° Northwest 480 552 24,000  Level Montreal Center
04:20PM 53.3333 -82.8000 326° Northwest 470 541 24,000  Level Montreal Center
04:21PM 53.4500 -82.9167 329° Northwest 470 541 24,000  Level Montreal Center
04:22PM 53.5500 -83.0500 322° Northwest 470 541 24,000  Level Montreal Center
04:23PM 53.6667 -83.1667 329° Northwest 470 541 24,000  Level Montreal Center
04:24PM 53.7833 -83.3000 326° Northwest 460 529 24,000  Level Montreal Center
04:25PM 53.8833 -83.4333 322° Northwest 470 541 24,000  Level Montreal Center
04:26PM 54.0000 -83.5667 326° Northwest 460 529 24,000  Level Montreal Center
04:27PM 54.1000 -83.6667 330° Northwest 460 529 24,000  Level Montreal Center
04:28PM 54.2000 -83.8000 322° Northwest 460 529 24,000  Level Montreal Center
04:29PM 54.3167 -83.9167 330° Northwest 460 529 24,000 60 Level Montreal Center
04:29PM 54.3167 -83.8333 90° East 470 541 24,100 1,080 Climbing Edmonton Center
04:30PM 54.4167 -83.9500 326° Northwest 460 529 25,500 1,320 Climbing Edmonton Center
04:31PM 54.5333 -84.1833 311° West 470 541 26,400 1,260 Climbing Montreal Center
04:31PM 54.5333 -84.1000 90° East 470 541 26,800 1,260 Climbing Edmonton Center
04:32PM 54.6167 -84.3000 306° West 470 541 27,700 1,380 Climbing Montreal Center
04:32PM 54.6333 -84.2333 67° East 470 541 28,200 1,320 Climbing Edmonton Center
04:34PM 54.8500 -84.4667 328° Northwest 520 598 30,700 1,260 Climbing Edmonton Center
04:35PM 54.9500 -84.6000 323° Northwest 470 541 32,000 600 Climbing Edmonton Center
04:36PM 55.0500 -84.7333 323° Northwest 460 529 32,000  Level Edmonton Center
04:37PM 55.1500 -84.8667 323° Northwest 460 529 32,000  Level Edmonton Center
04:38PM 55.2667 -84.9833 330° Northwest 450 518 32,000  Level Edmonton Center
04:39PM 55.3500 -85.1167 318° Northwest 450 518 32,000  Level Edmonton Center
04:40PM 55.4500 -85.2667 320° Northwest 450 518 32,000  Level Edmonton Center
04:41PM 55.5500 -85.4167 320° Northwest 450 518 32,000  Level Edmonton Center
04:42PM 55.6333 -85.5667 315° West 450 518 32,000  Level Edmonton Center
04:43PM 55.7500 -85.6833 331° Northwest 460 529 32,000  Level Edmonton Center
04:44PM 55.8333 -85.8333 315° West 460 529 32,000  Level Edmonton Center
04:45PM 55.9500 -85.9833 324° Northwest 460 529 32,000  Level Edmonton Center
04:46PM 56.0500 -86.1333 320° Northwest 460 529 32,000  Level Edmonton Center
04:47PM 56.1500 -86.3000 317° Northwest 460 529 32,000  Level Edmonton Center
04:48PM 56.2500 -86.4333 323° Northwest 460 529 32,000  Level Edmonton Center
04:49PM 56.3500 -86.6000 317° Northwest 470 541 32,000  Level Edmonton Center
04:50PM 56.4333 -86.7500 315° West 470 541 32,000  Level Edmonton Center
04:51PM 56.5500 -86.8833 328° Northwest 460 529 32,000  Level Edmonton Center
04:52PM 56.6333 -87.0333 315° West 460 529 32,000  Level Edmonton Center
04:53PM 56.7333 -87.2000 318° Northwest 460 529 32,000  Level Edmonton Center
04:56PM 56.8613 -87.3319 331° Northwest  Level FlightAware Approximate
05:05PM 57.8726 -88.5955 322° Northwest  Level FlightAware Approximate
05:06PM 57.9781 -88.7560 321° Northwest  Level FlightAware Approximate
05:07PM 58.0835 -88.9174 321° Northwest  Level FlightAware Approximate
05:08PM 58.1887 -89.0798 321° Northwest  Level FlightAware Approximate
05:09PM 58.2937 -89.2431 321° Northwest  Level FlightAware Approximate
05:10PM 58.3984 -89.4074 321° Northwest  Level FlightAware Approximate
05:11PM 58.5030 -89.5727 320° Northwest  Level FlightAware Approximate
05:12PM 58.6073 -89.7390 320° Northwest  Level FlightAware Approximate
05:13PM 58.7114 -89.9063 320° Northwest  Level FlightAware Approximate
05:14PM 58.8153 -90.0745 320° Northwest  Level FlightAware Approximate
05:15PM 58.9190 -90.2438 320° Northwest  Level FlightAware Approximate
05:16PM 59.0225 -90.4141 320° Northwest  Level FlightAware Approximate
05:17PM 59.1257 -90.5855 320° Northwest  Level FlightAware Approximate
05:18PM 59.2287 -90.7578 319° Northwest  Level FlightAware Approximate
05:19PM 59.3315 -90.9312 319° Northwest  Level FlightAware Approximate
05:20PM 59.4340 -91.1057 319° Northwest  Level FlightAware Approximate
05:21PM 59.5363 -91.2812 319° Northwest  Level FlightAware Approximate
05:22PM 59.6384 -91.4578 319° Northwest  Level FlightAware Approximate
05:23PM 59.7402 -91.6355 319° Northwest  Level FlightAware Approximate
05:24PM 59.8418 -91.8142 319° Northwest  Level FlightAware Approximate
05:25PM 59.9432 -91.9940 318° Northwest  Level FlightAware Approximate
05:26PM 60.0443 -92.1750 318° Northwest  Level FlightAware Approximate
05:27PM 60.1451 -92.3570 318° Northwest  Level FlightAware Approximate
05:28PM 60.2457 -92.5402 318° Northwest  Level FlightAware Approximate
05:29PM 60.3461 -92.7245 318° Northwest  Level FlightAware Approximate
05:30PM 60.4462 -92.9099 318° Northwest  Level FlightAware Approximate
05:31PM 60.5460 -93.0965 317° Northwest  Level FlightAware Approximate
05:32PM 60.6460 -93.2833 318° Northwest  Level FlightAware Approximate
05:33PM 60.7460 -93.4707 318° Northwest  Level FlightAware Approximate
05:34PM 60.8457 -93.6593 317° Northwest  Level FlightAware Approximate
05:35PM 60.9451 -93.8491 317° Northwest  Level FlightAware Approximate
05:36PM 61.0443 -94.0400 317° Northwest  Level FlightAware Approximate
05:37PM 61.1395 -94.2267 317° Northwest  Level FlightAware Approximate
05:38PM 61.2344 -94.4147 316° Northwest  Level FlightAware Approximate
05:39PM 61.3290 -94.6039 316° Northwest  Level FlightAware Approximate
05:40PM 61.4233 -94.7942 316° Northwest  Level FlightAware Approximate
05:41PM 61.5174 -94.9857 316° Northwest  Level FlightAware Approximate
05:42PM 61.6112 -95.1784 316° Northwest  Level FlightAware Approximate
05:43PM 61.7047 -95.3721 316° Northwest  Level FlightAware Approximate
05:44PM 61.7981 -95.5669 315° West  Level FlightAware Approximate
05:45PM 61.8913 -95.7626 315° West  Level FlightAware Approximate
05:46PM 61.9842 -95.9595 315° West  Level FlightAware Approximate
05:47PM 62.0768 -96.1576 315° West  Level FlightAware Approximate
05:48PM 62.1691 -96.3569 315° West  Level FlightAware Approximate
05:49PM 62.2612 -96.5574 315° West  Level FlightAware Approximate
05:50PM 62.3530 -96.7591 314° West  Level FlightAware Approximate
05:51PM 62.4444 -96.9621 314° West  Level FlightAware Approximate
05:52PM 62.5356 -97.1663 314° West  Level FlightAware Approximate
05:53PM 62.6265 -97.3718 314° West  Level FlightAware Approximate
05:54PM 62.7171 -97.5785 314° West  Level FlightAware Approximate
05:55PM 62.8073 -97.7865 314° West  Level FlightAware Approximate
05:56PM 62.8973 -97.9958 313° West  Level FlightAware Approximate
05:57PM 62.9869 -98.2064 313° West  Level FlightAware Approximate
05:58PM 63.0763 -98.4182 313° West  Level FlightAware Approximate
05:59PM 63.1653 -98.6314 313° West  Level FlightAware Approximate
06:00PM 63.2540 -98.8459 313° West  Level FlightAware Approximate
06:01PM 63.3424 -99.0617 312° West  Level FlightAware Approximate
06:02PM 63.4304 -99.2788 312° West  Level FlightAware Approximate
06:03PM 63.5181 -99.4973 312° West  Level FlightAware Approximate
06:04PM 63.6055 -99.7171 312° West  Level FlightAware Approximate
06:05PM 63.6925 -99.9382 312° West  Level FlightAware Approximate
06:06PM 63.7791 -100.1609 311° West  Level FlightAware Approximate
06:07PM 63.8653 -100.3850 311° West  Level FlightAware Approximate
06:08PM 63.9512 -100.6105 311° West  Level FlightAware Approximate
06:09PM 64.0368 -100.8374 311° West  Level FlightAware Approximate
06:10PM 64.1219 -101.0656 311° West  Level FlightAware Approximate
06:11PM 64.2068 -101.2953 310° West  Level FlightAware Approximate
06:12PM 64.2912 -101.5264 310° West  Level FlightAware Approximate
06:13PM 64.3753 -101.7589 310° West  Level FlightAware Approximate
06:14PM 64.4590 -101.9928 310° West  Level FlightAware Approximate
06:15PM 64.5424 -102.2281 310° West  Level FlightAware Approximate
06:16PM 64.6254 -102.4649 309° West  Level FlightAware Approximate
06:17PM 64.7079 -102.7032 309° West  Level FlightAware Approximate
06:18PM 64.7901 -102.9428 309° West  Level FlightAware Approximate
06:19PM 64.8719 -103.1840 309° West  Level FlightAware Approximate
06:20PM 64.9531 -103.4270 308° West  Level FlightAware Approximate
06:21PM 65.0333 -103.6727 308° West  Level FlightAware Approximate
06:22PM 65.1130 -103.9200 308° West  Level FlightAware Approximate
06:23PM 65.1923 -104.1686 307° West  Level FlightAware Approximate
06:24PM 65.2712 -104.4188 307° West  Level FlightAware Approximate
06:25PM 65.3497 -104.6705 307° West  Level FlightAware Approximate
06:26PM 65.4286 -104.9222 308° West  Level FlightAware Approximate
06:27PM 65.5084 -105.1729 308° West  Level FlightAware Approximate
06:28PM 65.5879 -105.4251 307° West  Level FlightAware Approximate
06:29PM 65.6669 -105.6788 307° West  Level FlightAware Approximate
06:30PM 65.7455 -105.9341 307° West  Level FlightAware Approximate
06:31PM 65.8237 -106.1910 307° West  Level FlightAware Approximate
06:32PM 65.9008 -106.4506 305° West  Level FlightAware Approximate
06:33PM 65.9765 -106.7133 305° West  Level FlightAware Approximate
06:34PM 66.0518 -106.9776 305° West  Level FlightAware Approximate
06:35PM 66.1267 -107.2434 305° West  Level FlightAware Approximate
06:36PM 66.2011 -107.5108 305° West  Level FlightAware Approximate
06:37PM 66.2750 -107.7798 304° West  Level FlightAware Approximate
06:38PM 66.3485 -108.0503 304° West  Level FlightAware Approximate
06:39PM 66.4215 -108.3224 304° West  Level FlightAware Approximate
06:40PM 66.4940 -108.5962 304° West  Level FlightAware Approximate
06:41PM 66.5660 -108.8715 303° West  Level FlightAware Approximate
06:42PM 66.6376 -109.1484 303° West  Level FlightAware Approximate
06:43PM 66.7082 -109.4360 302° West  Level FlightAware Approximate
06:44PM 66.7784 -109.7252 302° West  Level FlightAware Approximate
06:45PM 66.8480 -110.0161 301° West  Level FlightAware Approximate
06:46PM 66.9171 -110.3087 301° West  Level FlightAware Approximate
06:47PM 66.9856 -110.6029 301° West  Level FlightAware Approximate
06:48PM 67.0536 -110.8988 301° West  Level FlightAware Approximate
06:49PM 67.1210 -111.1963 300° West  Level FlightAware Approximate
06:50PM 67.1879 -111.4954 300° West  Level FlightAware Approximate
06:51PM 67.2542 -111.7963 300° West  Level FlightAware Approximate
06:52PM 67.3199 -112.0988 300° West  Level FlightAware Approximate
06:53PM 67.3851 -112.4029 299° West  Level FlightAware Approximate
06:54PM 67.4497 -112.7087 299° West  Level FlightAware Approximate
06:55PM 67.5146 -113.0166 300° West  Level FlightAware Approximate
06:56PM 67.5808 -113.3216 300° West  Level FlightAware Approximate
06:57PM 67.6465 -113.6284 299° West  Level FlightAware Approximate
06:58PM 67.7116 -113.9369 299° West  Level FlightAware Approximate
06:59PM 67.7762 -114.2470 299° West  Level FlightAware Approximate
07:00PM 67.8401 -114.5589 299° West  Level FlightAware Approximate
07:01PM 67.9034 -114.8725 298° West  Level FlightAware Approximate
07:02PM 67.9662 -115.1878 298° West  Level FlightAware Approximate
07:03PM 68.0283 -115.5048 298° West  Level FlightAware Approximate
07:04PM 68.0898 -115.8235 297° West  Level FlightAware Approximate
07:05PM 68.1507 -116.1439 297° West  Level FlightAware Approximate
07:06PM 68.2110 -116.4659 297° West  Level FlightAware Approximate
07:07PM 68.2706 -116.7897 297° West  Level FlightAware Approximate
07:08PM 68.3296 -117.1152 296° West  Level FlightAware Approximate
07:09PM 68.3880 -117.4423 296° West  Level FlightAware Approximate
07:10PM 68.4457 -117.7711 296° West  Level FlightAware Approximate
07:11PM 68.5028 -118.1016 295° West  Level FlightAware Approximate
07:12PM 68.5592 -118.4338 295° West  Level FlightAware Approximate
07:13PM 68.6150 -118.7676 295° West  Level FlightAware Approximate
07:14PM 68.6701 -119.1031 294° West  Level FlightAware Approximate
07:15PM 68.7246 -119.4402 294° West  Level FlightAware Approximate
07:16PM 68.7783 -119.7789 294° West  Level FlightAware Approximate
07:17PM 68.8314 -120.1193 293° West  Level FlightAware Approximate
07:18PM 68.8838 -120.4613 293° West  Level FlightAware Approximate
07:19PM 68.9355 -120.8050 293° West  Level FlightAware Approximate
07:20PM 68.9866 -121.1502 293° West  Level FlightAware Approximate
07:21PM 69.0369 -121.4970 292° West  Level FlightAware Approximate
07:22PM 69.0865 -121.8454 292° West  Level FlightAware Approximate
07:23PM 69.1354 -122.1954 292° West  Level FlightAware Approximate
07:24PM 69.1836 -122.5469 291° West  Level FlightAware Approximate
07:25PM 69.2311 -122.9000 291° West  Level FlightAware Approximate
07:26PM 69.2778 -123.2546 291° West  Level FlightAware Approximate
07:27PM 69.3238 -123.6107 290° West  Level FlightAware Approximate
07:28PM 69.3691 -123.9684 290° West  Level FlightAware Approximate
07:29PM 69.4137 -124.3275 290° West  Level FlightAware Approximate
07:30PM 69.4575 -124.6881 289° West  Level FlightAware Approximate
07:31PM 69.5005 -125.0502 289° West  Level FlightAware Approximate
07:32PM 69.5428 -125.4137 289° West  Level FlightAware Approximate
07:33PM 69.5844 -125.7787 288° West  Level FlightAware Approximate
07:34PM 69.6251 -126.1450 288° West  Level FlightAware Approximate
07:35PM 69.6651 -126.5128 288° West  Level FlightAware Approximate
07:36PM 69.7044 -126.8819 287° West  Level FlightAware Approximate
07:37PM 69.7428 -127.2524 287° West  Level FlightAware Approximate
07:38PM 69.7805 -127.6242 287° West  Level FlightAware Approximate
07:39PM 69.8174 -127.9974 286° West  Level FlightAware Approximate
07:40PM 69.8535 -128.3718 286° West  Level FlightAware Approximate
07:41PM 69.8888 -128.7475 285° West  Level FlightAware Approximate
07:42PM 69.9233 -129.1245 285° West  Level FlightAware Approximate
07:43PM 69.9570 -129.5027 285° West  Level FlightAware Approximate
07:44PM 69.9900 -129.8821 284° West  Level FlightAware Approximate
07:45PM 70.0434 -130.2389 298° West  Level FlightAware Approximate
07:46PM 70.1058 -130.5871 298° West  Level FlightAware Approximate
07:47PM 70.1674 -130.9373 298° West  Level FlightAware Approximate
07:48PM 70.2284 -131.2896 297° West  Level FlightAware Approximate
07:49PM 70.2887 -131.6439 297° West  Level FlightAware Approximate
07:50PM 70.3483 -132.0004 297° West  Level FlightAware Approximate
07:51PM 70.4072 -132.3589 296° West  Level FlightAware Approximate
07:52PM 70.4654 -132.7195 296° West  Level FlightAware Approximate
07:53PM 70.5229 -133.0821 296° West  Level FlightAware Approximate
07:54PM 70.5796 -133.4468 295° West  Level FlightAware Approximate
07:55PM 70.6356 -133.8136 295° West  Level FlightAware Approximate
07:56PM 70.6908 -134.1823 295° West  Level FlightAware Approximate
07:57PM 70.7454 -134.5531 294° West  Level FlightAware Approximate
07:58PM 70.7996 -134.9253 294° West  Level FlightAware Approximate
07:59PM 70.8533 -135.2992 294° West  Level FlightAware Approximate
08:00PM 70.9062 -135.6751 293° West  Level FlightAware Approximate
08:01PM 70.9584 -136.0530 293° West  Level FlightAware Approximate
08:02PM 71.0098 -136.4328 293° West  Level FlightAware Approximate
08:03PM 71.0605 -136.8147 292° West  Level FlightAware Approximate
08:04PM 71.1104 -137.1985 292° West  Level FlightAware Approximate
08:05PM 71.1594 -137.5842 292° West  Level FlightAware Approximate
08:06PM 71.2077 -137.9718 291° West  Level FlightAware Approximate
08:07PM 71.2552 -138.3614 291° West  Level FlightAware Approximate
08:08PM 71.3018 -138.7529 291° West  Level FlightAware Approximate
08:09PM 71.3477 -139.1462 290° West  Level FlightAware Approximate
08:10PM 71.3927 -139.5414 290° West  Level FlightAware Approximate
08:11PM 71.4369 -139.9384 289° West  Level FlightAware Approximate
08:12PM 71.4802 -140.3372 289° West  Level FlightAware Approximate
08:13PM 71.5227 -140.7379 289° West  Level FlightAware Approximate
08:14PM 71.5602 -141.1438 283° West  Level FlightAware Approximate
08:15PM 71.5889 -141.5580 283° West  Level FlightAware Approximate
08:16PM 71.6168 -141.9734 282° West  Level FlightAware Approximate
08:17PM 71.6437 -142.3901 282° West  Level FlightAware Approximate
08:17PM 71.3833 -139.4167 280° West 450 518 34,000  Level Anchorage Center
08:18PM 71.6697 -142.8078 281° West  Level FlightAware Approximate
08:18PM 71.4167 -139.7833 286° West 460 529 34,000  Level Anchorage Center
08:19PM 71.6948 -143.2267 281° West  Level FlightAware Approximate
08:19PM 71.4667 -140.1500 293° West 460 529 34,000  Level Anchorage Center
08:20PM 71.7190 -143.6467 281° West  Level FlightAware Approximate
08:20PM 71.5000 -140.5167 286° West 450 518 34,000  Level Anchorage Center
08:21PM 71.7423 -144.0678 280° West  Level FlightAware Approximate
08:21PM 71.5500 -140.9000 293° West 450 518 34,000  Level Anchorage Center
08:22PM 71.7646 -144.4899 280° West  Level FlightAware Approximate
08:22PM 71.5833 -141.2833 286° West 460 529 34,000  Level Anchorage Center
08:23PM 71.6000 -141.6667 278° West 460 529 34,000  Level Anchorage Center
08:24PM 71.6333 -142.0500 286° West 450 518 34,000  Level Anchorage Center
08:25PM 71.6500 -142.4500 278° West 460 529 34,000  Level Anchorage Center
08:26PM 71.6667 -142.8333 278° West 450 518 34,000  Level Anchorage Center
08:27PM 71.7000 -143.2167 286° West 440 506 34,000  Level Anchorage Center
08:28PM 71.7167 -143.6333 277° West 480 552 34,000  Level Anchorage Center
08:29PM 71.7500 -144.0333 285° West 470 541 34,000  Level Anchorage Center
08:31PM 71.7833 -144.8167 278° West 450 518 34,000  Level Anchorage Center
08:32PM 71.8000 -145.2000 278° West 460 529 34,000  Level Anchorage Center
08:33PM 71.8167 -145.6167 277° West 460 529 34,000  Level Anchorage Center
08:34PM 71.8333 -146.0167 278° West 460 529 34,000  Level Anchorage Center
08:35PM 71.8500 -146.4167 278° West 460 529 34,000  Level Anchorage Center
08:36PM 71.8667 -146.8167 278° West 460 529 34,000  Level Anchorage Center
08:37PM 71.8833 -147.2167 278° West 460 529 34,000  Level Anchorage Center
08:38PM 71.9000 -147.6333 278° West 460 529 34,000  Level Anchorage Center
08:39PM 71.9167 -148.0333 278° West 460 529 34,000  Level Anchorage Center
08:40PM 71.9333 -148.4500 278° West 470 541 34,000  Level Anchorage Center
08:41PM 71.9333 -148.8667 270° West 470 541 34,000  Level Anchorage Center
08:42PM 71.9500 -149.2667 278° West 470 541 34,000  Level Anchorage Center
08:43PM 71.9667 -149.6833 278° West 470 541 34,000  Level Anchorage Center
08:44PM 71.9667 -150.1000 270° West 460 529 34,000  Level Anchorage Center
08:45PM 71.9833 -150.5167 278° West 470 541 34,000  Level Anchorage Center
08:46PM 71.9833 -150.9333 270° West 460 529 34,000  Level Anchorage Center
08:47PM 71.9833 -151.3000 270° West 470 541 34,000  Level Anchorage Center
08:48PM 72.0000 -151.7333 277° West 470 541 34,000  Level Anchorage Center
08:49PM 72.0000 -152.1333 270° West 460 529 34,000  Level Anchorage Center
08:50PM 72.0000 -152.5500 270° West 470 541 34,000  Level Anchorage Center
08:51PM 72.0167 -152.9667 278° West 470 541 34,000  Level Anchorage Center
08:52PM 72.0167 -153.4000 270° West 470 541 34,000  Level Anchorage Center
08:53PM 72.0167 -153.8167 270° West 470 541 34,000  Level Anchorage Center
08:54PM 72.0167 -154.2333 270° West 470 541 34,000  Level Anchorage Center
08:55PM 72.0167 -154.6500 270° West 460 529 34,000  Level Anchorage Center
08:56PM 72.0167 -155.0833 270° West 480 552 34,000  Level Anchorage Center
08:57PM 72.0167 -155.5000 270° West 470 541 34,000  Level Anchorage Center
08:58PM 72.0000 -155.9167 263° West 470 541 34,000  Level Anchorage Center
08:59PM 72.0000 -156.3333 270° West 470 541 34,000  Level Anchorage Center
09:00PM 72.0000 -156.7500 270° West 470 541 34,000  Level Anchorage Center
09:01PM 72.0000 -157.1667 270° West 480 552 34,000  Level Anchorage Center
09:02PM 72.0167 -157.5833 278° West 470 541 34,000  Level Anchorage Center
09:03PM 72.0167 -158.0167 270° West 470 541 34,000  Level Anchorage Center
09:04PM 72.0333 -158.4333 278° West 470 541 34,000  Level Anchorage Center
09:05PM 72.0500 -158.8500 278° West 480 552 34,000  Level Anchorage Center
09:06PM 72.0500 -159.2667 270° West 480 552 34,000  Level Anchorage Center
09:07PM 72.0667 -159.7000 277° West 470 541 34,000  Level Anchorage Center
09:08PM 72.0667 -160.1333 270° West 480 552 34,000  Level Anchorage Center
09:09PM 72.0667 -160.5500 270° West 480 552 34,000  Level Anchorage Center
09:10PM 72.0667 -160.9833 270° West 480 552 34,000  Level Anchorage Center
09:11PM 72.0833 -161.4167 277° West 490 564 34,000  Level Anchorage Center
09:12PM 72.0833 -161.8500 270° West 480 552 34,000  Level Anchorage Center
09:13PM 72.0833 -162.2833 270° West 480 552 34,000  Level Anchorage Center
09:14PM 72.0833 -162.7167 270° West 490 564 34,000  Level Anchorage Center
09:15PM 72.0833 -163.1500 270° West 490 564 34,000  Level Anchorage Center
09:16PM 72.0833 -163.5833 270° West 490 564 34,000  Level Anchorage Center
09:17PM 72.0833 -164.0167 270° West 480 552 34,000  Level Anchorage Center
09:18PM 72.0833 -164.4500 270° West 490 564 34,000  Level Anchorage Center
09:19PM 72.0833 -164.9000 270° West 490 564 34,000  Level Anchorage Center
09:20PM 72.0667 -165.3333 263° West 490 564 34,000  Level Anchorage Center
09:21PM 72.0667 -165.7667 270° West 490 564 34,000  Level Anchorage Center
09:22PM 72.0667 -166.2167 270° West 490 564 34,000  Level Anchorage Center
09:23PM 72.0500 -166.6500 263° West 490 564 34,000  Level Anchorage Center
09:25PM 72.0333 -167.5167 267° West 490 564 34,000  Level Anchorage Center
09:26PM 72.0167 -167.9667 263° West 500 575 34,000  Level Anchorage Center
09:27PM 72.0167 -168.4000 270° West 490 564 34,000  Level Anchorage Center
09:30PM 71.9886 -169.2022 261° West  Level FlightAware Approximate
09:37PM 71.8226 -172.1135 261° West  Level FlightAware Approximate
09:38PM 71.7954 -172.5250 258° West  Level FlightAware Approximate
09:39PM 71.7673 -172.9353 258° West  Level FlightAware Approximate
09:40PM 71.7383 -173.3443 257° West  Level FlightAware Approximate
09:41PM 71.7084 -173.7521 257° West  Level FlightAware Approximate
09:42PM 71.6777 -174.1585 257° West  Level FlightAware Approximate
09:43PM 71.6461 -174.5637 256° West  Level FlightAware Approximate
09:44PM 71.6137 -174.9674 256° West  Level FlightAware Approximate
09:45PM 71.5804 -175.3698 256° West  Level FlightAware Approximate
09:46PM 71.5462 -175.7708 255° West  Level FlightAware Approximate
09:47PM 71.5113 -176.1703 255° West  Level FlightAware Approximate
09:48PM 71.4755 -176.5683 254° West  Level FlightAware Approximate
09:49PM 71.4389 -176.9649 254° West  Level FlightAware Approximate
09:50PM 71.4021 -177.3605 254° West  Level FlightAware Approximate
09:51PM 71.3656 -177.7557 254° West  Level FlightAware Approximate
09:52PM 71.3283 -178.1493 254° West  Level FlightAware Approximate
09:53PM 71.2901 -178.5414 253° West  Level FlightAware Approximate
09:54PM 71.2512 -178.9320 253° West  Level FlightAware Approximate
09:55PM 71.2114 -179.3210 253° West  Level FlightAware Approximate
09:56PM 71.1708 -179.7083 252° West  Level FlightAware Approximate
09:57PM 71.1295 179.9059 252° West  Level FlightAware Approximate
09:58PM 71.0873 179.5218 251° West  Level FlightAware Approximate
09:59PM 71.0444 179.1394 251° West  Level FlightAware Approximate
10:00PM 71.0006 178.7586 251° West  Level FlightAware Approximate
10:01PM 70.9561 178.3795 250° West  Level FlightAware Approximate
10:02PM 70.9107 178.0024 249° West  Level FlightAware Approximate
10:03PM 70.8634 177.6283 249° West  Level FlightAware Approximate
10:04PM 70.8153 177.2560 249° West  Level FlightAware Approximate
10:05PM 70.7664 176.8855 248° West  Level FlightAware Approximate
10:06PM 70.7168 176.5169 248° West  Level FlightAware Approximate
10:07PM 70.6665 176.1501 248° West  Level FlightAware Approximate
10:08PM 70.6154 175.7851 247° West  Level FlightAware Approximate
10:09PM 70.5637 175.4220 247° West  Level FlightAware Approximate
10:10PM 70.5111 175.0607 247° West  Level FlightAware Approximate
10:11PM 70.4579 174.7013 246° West  Level FlightAware Approximate
10:12PM 70.4040 174.3439 246° West  Level FlightAware Approximate
10:13PM 70.3494 173.9883 246° West  Level FlightAware Approximate
10:14PM 70.2941 173.6346 245° Southwest  Level FlightAware Approximate
10:15PM 70.2381 173.2828 245° Southwest  Level FlightAware Approximate
10:16PM 70.1809 172.9337 244° Southwest  Level FlightAware Approximate
10:17PM 70.1227 172.5869 244° Southwest  Level FlightAware Approximate
10:18PM 70.0639 172.2421 244° Southwest  Level FlightAware Approximate
10:19PM 70.0044 171.8992 243° Southwest  Level FlightAware Approximate
10:20PM 69.9443 171.5583 243° Southwest  Level FlightAware Approximate
10:21PM 69.8835 171.2194 243° Southwest  Level FlightAware Approximate
10:22PM 69.8222 170.8832 242° Southwest  Level FlightAware Approximate
10:23PM 69.7566 170.5572 222° Southwest  Level FlightAware Approximate
10:24PM 69.6589 170.3055 222° Southwest  Level FlightAware Approximate
10:25PM 69.5607 170.0558 222° Southwest  Level FlightAware Approximate
10:26PM 69.4622 169.8083 221° Southwest  Level FlightAware Approximate
10:27PM 69.3633 169.5632 221° Southwest  Level FlightAware Approximate
10:28PM 69.2641 169.3202 221° Southwest  Level FlightAware Approximate
10:29PM 69.1645 169.0795 221° Southwest  Level FlightAware Approximate
10:30PM 69.0646 168.8410 221° Southwest  Level FlightAware Approximate
10:31PM 68.9644 168.6046 220° Southwest  Level FlightAware Approximate
10:32PM 68.8638 168.3704 220° Southwest  Level FlightAware Approximate
10:33PM 68.7629 168.1383 220° Southwest  Level FlightAware Approximate
10:34PM 68.6618 167.9083 220° Southwest  Level FlightAware Approximate
10:35PM 68.5602 167.6804 219° Southwest  Level FlightAware Approximate
10:36PM 68.4583 167.4550 219° Southwest  Level FlightAware Approximate
10:37PM 68.3559 167.2320 219° Southwest  Level FlightAware Approximate
10:38PM 68.2533 167.0110 219° Southwest  Level FlightAware Approximate
10:39PM 68.1504 166.7920 218° Southwest  Level FlightAware Approximate
10:40PM 68.0471 166.5749 218° Southwest  Level FlightAware Approximate
10:41PM 67.9436 166.3598 218° Southwest  Level FlightAware Approximate
10:42PM 67.8398 166.1466 218° Southwest  Level FlightAware Approximate
10:43PM 67.7440 165.9095 224° Southwest  Level FlightAware Approximate
10:44PM 67.6485 165.6727 223° Southwest  Level FlightAware Approximate
10:45PM 67.5526 165.4378 223° Southwest  Level FlightAware Approximate
10:46PM 67.4563 165.2048 223° Southwest  Level FlightAware Approximate
10:47PM 67.3597 164.9737 223° Southwest  Level FlightAware Approximate
10:48PM 67.2628 164.7444 222° Southwest  Level FlightAware Approximate
10:49PM 67.1656 164.5170 222° Southwest  Level FlightAware Approximate
10:50PM 67.0680 164.2914 222° Southwest  Level FlightAware Approximate
10:51PM 66.9702 164.0677 222° Southwest  Level FlightAware Approximate
10:52PM 66.8720 163.8457 222° Southwest  Level FlightAware Approximate
10:53PM 66.7735 163.6255 221° Southwest  Level FlightAware Approximate
10:54PM 66.6747 163.4071 221° Southwest  Level FlightAware Approximate
10:55PM 66.5756 163.1904 221° Southwest  Level FlightAware Approximate
10:56PM 66.4762 162.9754 221° Southwest  Level FlightAware Approximate
10:57PM 66.3761 162.7634 220° Southwest  Level FlightAware Approximate
10:58PM 66.2754 162.5540 220° Southwest  Level FlightAware Approximate
10:59PM 66.1744 162.3464 220° Southwest  Level FlightAware Approximate
11:00PM 66.0731 162.1404 220° Southwest  Level FlightAware Approximate
11:01PM 65.9715 161.9360 219° Southwest  Level FlightAware Approximate
11:02PM 65.8697 161.7332 219° Southwest  Level FlightAware Approximate
11:03PM 65.7676 161.5321 219° Southwest  Level FlightAware Approximate
11:04PM 65.6655 161.3320 219° Southwest  Level FlightAware Approximate
11:05PM 65.5634 161.1323 219° Southwest  Level FlightAware Approximate
11:06PM 65.4611 160.9342 219° Southwest  Level FlightAware Approximate
11:07PM 65.3585 160.7376 219° Southwest  Level FlightAware Approximate
11:08PM 65.2557 160.5426 218° Southwest  Level FlightAware Approximate
11:09PM 65.1526 160.3490 218° Southwest  Level FlightAware Approximate
11:10PM 65.0493 160.1570 218° Southwest  Level FlightAware Approximate
11:11PM 64.9457 159.9665 218° Southwest  Level FlightAware Approximate
11:12PM 64.8419 159.7774 218° Southwest  Level FlightAware Approximate
11:13PM 64.7379 159.5898 218° Southwest  Level FlightAware Approximate
11:14PM 64.6336 159.4036 217° Southwest  Level FlightAware Approximate
11:15PM 64.5291 159.2189 217° Southwest  Level FlightAware Approximate
11:16PM 64.4244 159.0355 217° Southwest  Level FlightAware Approximate
11:17PM 64.3194 158.8536 217° Southwest  Level FlightAware Approximate
11:18PM 64.2142 158.6730 217° Southwest  Level FlightAware Approximate
11:19PM 64.1088 158.4938 217° Southwest  Level FlightAware Approximate
11:20PM 64.0032 158.3160 216° Southwest  Level FlightAware Approximate
11:21PM 63.8973 158.1395 216° Southwest  Level FlightAware Approximate
11:22PM 63.7913 157.9643 216° Southwest  Level FlightAware Approximate
11:23PM 63.6850 157.7905 216° Southwest  Level FlightAware Approximate
11:24PM 63.5785 157.6179 216° Southwest  Level FlightAware Approximate
11:25PM 63.4718 157.4466 216° Southwest  Level FlightAware Approximate
11:26PM 63.3649 157.2767 216° Southwest  Level FlightAware Approximate
11:27PM 63.2578 157.1079 215° Southwest  Level FlightAware Approximate
11:28PM 63.1506 156.9404 215° Southwest  Level FlightAware Approximate
11:29PM 63.0431 156.7742 215° Southwest  Level FlightAware Approximate
11:30PM 62.9354 156.6092 215° Southwest  Level FlightAware Approximate
11:31PM 62.8275 156.4454 215° Southwest  Level FlightAware Approximate
11:32PM 62.7195 156.2827 215° Southwest  Level FlightAware Approximate
11:33PM 62.6112 156.1213 214° Southwest  Level FlightAware Approximate
11:34PM 62.5028 155.9610 214° Southwest  Level FlightAware Approximate
11:35PM 62.3942 155.8020 214° Southwest  Level FlightAware Approximate
11:36PM 62.2854 155.6440 214° Southwest  Level FlightAware Approximate
11:37PM 62.1764 155.4872 214° Southwest  Level FlightAware Approximate
11:38PM 62.0673 155.3315 214° Southwest  Level FlightAware Approximate
11:39PM 61.9580 155.1770 214° Southwest  Level FlightAware Approximate
11:40PM 61.8485 155.0235 213° Southwest  Level FlightAware Approximate
11:41PM 61.7388 154.8712 213° Southwest  Level FlightAware Approximate
11:42PM 61.6290 154.7199 213° Southwest  Level FlightAware Approximate
11:43PM 61.5191 154.5699 213° Southwest  Level FlightAware Approximate
11:44PM 61.4091 154.4209 213° Southwest  Level FlightAware Approximate
11:45PM 61.2989 154.2730 213° Southwest  Level FlightAware Approximate
11:46PM 61.1886 154.1261 213° Southwest  Level FlightAware Approximate
11:47PM 61.0781 153.9803 213° Southwest  Level FlightAware Approximate
11:48PM 60.9675 153.8354 212° Southwest  Level FlightAware Approximate
11:49PM 60.8567 153.6916 212° Southwest  Level FlightAware Approximate
11:50PM 60.7457 153.5487 212° Southwest  Level FlightAware Approximate
11:51PM 60.6346 153.4069 212° Southwest  Level FlightAware Approximate
11:52PM 60.5233 153.2660 212° Southwest  Level FlightAware Approximate
11:53PM 60.4119 153.1261 212° Southwest  Level FlightAware Approximate
11:54PM 60.3004 152.9871 212° Southwest  Level FlightAware Approximate
11:55PM 60.1887 152.8491 212° Southwest  Level FlightAware Approximate
11:56PM 60.0769 152.7121 211° Southwest  Level FlightAware Approximate
11:57PM 59.9649 152.5759 211° Southwest  Level FlightAware Approximate
11:58PM 59.8528 152.4407 211° Southwest  Level FlightAware Approximate
11:59PM 59.7405 152.3064 211° Southwest  Level FlightAware Approximate
12:00AM 59.6281 152.1729 211° Southwest  Level FlightAware Approximate
12:01AM 59.5156 152.0404 211° Southwest  Level FlightAware Approximate
12:02AM 59.4030 151.9088 211° Southwest  Level FlightAware Approximate
12:03AM 59.2902 151.7780 211° Southwest  Level FlightAware Approximate
12:04AM 59.1772 151.6481 211° Southwest  Level FlightAware Approximate
12:05AM 59.0642 151.5190 210° Southwest  Level FlightAware Approximate
12:06AM 58.9510 151.3908 210° Southwest  Level FlightAware Approximate
12:07AM 58.8377 151.2634 210° Southwest  Level FlightAware Approximate
12:08AM 58.7243 151.1369 210° Southwest  Level FlightAware Approximate
12:09AM 58.6108 151.0112 210° Southwest  Level FlightAware Approximate
12:10AM 58.4971 150.8863 210° Southwest  Level FlightAware Approximate
12:11AM 58.3833 150.7622 210° Southwest  Level FlightAware Approximate
12:12AM 58.2694 150.6389 210° Southwest  Level FlightAware Approximate
12:13AM 58.1554 150.5164 210° Southwest  Level FlightAware Approximate
12:14AM 58.0412 150.3947 209° Southwest  Level FlightAware Approximate
12:15AM 57.9270 150.2737 209° Southwest  Level FlightAware Approximate
12:16AM 57.8126 150.1536 209° Southwest  Level FlightAware Approximate
12:17AM 57.6981 150.0341 209° Southwest  Level FlightAware Approximate
12:18AM 57.5835 149.9155 209° Southwest  Level FlightAware Approximate
12:19AM 57.4688 149.7976 209° Southwest  Level FlightAware Approximate
12:20AM 57.3540 149.6804 209° Southwest  Level FlightAware Approximate
12:21AM 57.2390 149.5639 209° Southwest  Level FlightAware Approximate
12:22AM 57.1240 149.4482 209° Southwest  Level FlightAware Approximate
12:23AM 57.0089 149.3332 209° Southwest  Level FlightAware Approximate
12:24AM 56.8936 149.2189 208° Southwest  Level FlightAware Approximate
12:25AM 56.7783 149.1053 208° Southwest  Level FlightAware Approximate
12:26AM 56.6628 148.9924 208° Southwest  Level FlightAware Approximate
12:27AM 56.5473 148.8802 208° Southwest  Level FlightAware Approximate
12:28AM 56.4316 148.7686 208° Southwest  Level FlightAware Approximate
12:29AM 56.3159 148.6578 208° Southwest  Level FlightAware Approximate
12:30AM 56.2000 148.5476 208° Southwest  Level FlightAware Approximate
12:31AM 56.0841 148.4381 208° Southwest  Level FlightAware Approximate
12:32AM 55.9680 148.3293 208° Southwest  Level FlightAware Approximate
12:33AM 55.8519 148.2210 208° Southwest  Level FlightAware Approximate
12:34AM 55.7357 148.1135 208° Southwest  Level FlightAware Approximate
12:35AM 55.6193 148.0066 207° Southwest  Level FlightAware Approximate
12:36AM 55.5029 147.9003 207° Southwest  Level FlightAware Approximate
12:37AM 55.3864 147.7946 207° Southwest  Level FlightAware Approximate
12:38AM 55.2698 147.6896 207° Southwest  Level FlightAware Approximate
12:39AM 55.1531 147.5851 207° Southwest  Level FlightAware Approximate
12:40AM 55.0363 147.4813 207° Southwest  Level FlightAware Approximate
12:41AM 54.9195 147.3781 207° Southwest  Level FlightAware Approximate
12:42AM 54.8025 147.2755 207° Southwest  Level FlightAware Approximate
12:43AM 54.6855 147.1735 207° Southwest  Level FlightAware Approximate
12:44AM 54.5684 147.0720 207° Southwest  Level FlightAware Approximate
12:45AM 54.4511 146.9712 207° Southwest  Level FlightAware Approximate
12:46AM 54.3339 146.8709 207° Southwest  Level FlightAware Approximate
12:47AM 54.2165 146.7712 206° Southwest  Level FlightAware Approximate
12:48AM 54.0990 146.6721 206° Southwest  Level FlightAware Approximate
12:49AM 53.9815 146.5735 206° Southwest  Level FlightAware Approximate
12:50AM 53.8638 146.4754 206° Southwest  Level FlightAware Approximate
12:51AM 53.7462 146.3780 206° Southwest  Level FlightAware Approximate
12:52AM 53.6284 146.2810 206° Southwest  Level FlightAware Approximate
12:53AM 53.5105 146.1846 206° Southwest  Level FlightAware Approximate
12:54AM 53.3926 146.0888 206° Southwest  Level FlightAware Approximate
12:55AM 53.2746 145.9935 206° Southwest  Level FlightAware Approximate
12:56AM 53.1565 145.8987 206° Southwest  Level FlightAware Approximate
12:57AM 53.0383 145.8044 206° Southwest  Level FlightAware Approximate
12:58AM 52.9201 145.7106 206° Southwest  Level FlightAware Approximate
12:59AM 52.8018 145.6174 205° Southwest  Level FlightAware Approximate
01:00AM 52.6834 145.5246 205° Southwest  Level FlightAware Approximate
01:01AM 52.5650 145.4323 205° Southwest  Level FlightAware Approximate
01:02AM 52.4464 145.3406 205° Southwest  Level FlightAware Approximate
01:03AM 52.3279 145.2493 205° Southwest  Level FlightAware Approximate
01:04AM 52.2095 145.1588 205° Southwest  Level FlightAware Approximate
01:05AM 52.0911 145.0688 205° Southwest  Level FlightAware Approximate
01:06AM 51.9726 144.9792 205° Southwest  Level FlightAware Approximate
01:07AM 51.8540 144.8901 205° Southwest  Level FlightAware Approximate
01:08AM 51.7354 144.8014 205° Southwest  Level FlightAware Approximate
01:09AM 51.6167 144.7133 205° Southwest  Level FlightAware Approximate
01:10AM 51.4979 144.6255 205° Southwest  Level FlightAware Approximate
01:11AM 51.3791 144.5383 205° Southwest  Level FlightAware Approximate
01:12AM 51.2602 144.4515 205° Southwest  Level FlightAware Approximate
01:13AM 51.1413 144.3651 204° Southwest  Level FlightAware Approximate
01:14AM 51.0223 144.2792 204° Southwest  Level FlightAware Approximate
01:15AM 50.9032 144.1938 204° Southwest  Level FlightAware Approximate
01:16AM 50.7840 144.1087 204° Southwest  Level FlightAware Approximate
01:17AM 50.6648 144.0241 204° Southwest  Level FlightAware Approximate
01:18AM 50.5456 143.9400 204° Southwest  Level FlightAware Approximate
01:19AM 50.4263 143.8562 204° Southwest  Level FlightAware Approximate
01:20AM 50.3069 143.7729 204° Southwest  Level FlightAware Approximate
01:21AM 50.1875 143.6895 204° Southwest  Level FlightAware Approximate
01:22AM 50.0682 143.6062 204° Southwest  Level FlightAware Approximate
01:23AM 49.9489 143.5232 204° Southwest  Level FlightAware Approximate
01:24AM 49.8296 143.4407 204° Southwest  Level FlightAware Approximate
01:25AM 49.7101 143.3586 204° Southwest  Level FlightAware Approximate
01:26AM 49.5906 143.2770 203° Southwest  Level FlightAware Approximate
01:27AM 49.4706 143.1971 203° Southwest  Level FlightAware Approximate
01:28AM 49.3507 143.1175 203° Southwest  Level FlightAware Approximate
01:29AM 49.2306 143.0383 203° Southwest  Level FlightAware Approximate
01:30AM 49.1105 142.9595 203° Southwest  Level FlightAware Approximate
01:31AM 48.9904 142.8811 203° Southwest  Level FlightAware Approximate
01:32AM 48.8702 142.8031 203° Southwest  Level FlightAware Approximate
01:32AM 47.2440 141.9640 203° Southwest 486 559 36,000  Level FlightAware
01:33AM 48.7499 142.7254 203° Southwest  Level FlightAware Approximate
01:33AM 47.1440 141.9540 184° South 483 556 36,000  Level FlightAware
01:34AM 47.0560 141.9440 184° South 482 555 36,000  Level FlightAware
01:34AM 46.9540 141.9340 184° South 481 554 36,000  Level FlightAware
01:35AM 46.8650 141.9240 184° South 481 554 36,000  Level FlightAware
01:36AM 46.7760 141.9150 184° South 481 554 36,000  Level FlightAware
01:37AM 46.5850 141.8950 186° South 481 554 36,000  Level FlightAware
01:38AM 46.5552 141.8786 186° South  Level Estimated
01:40AM 46.2993 141.8479 186° South  Level Estimated
01:40AM 46.2620 141.8610 186° South 481 554 36,000  Level FlightAware
01:42AM 46.0305 141.8227 187° South  Level Estimated
01:42AM 45.9410 141.8280 187° South 471 542 36,000  Level FlightAware
01:45AM 45.6338 141.7772 187° South  Level Estimated
01:45AM 45.6240 141.7960 187° South 471 542 36,000  Level FlightAware
01:46AM 45.4850 141.7830 184° South 470 541 36,000 120 Level FlightAware
01:46AM 45.3750 141.7730 184° South 480 552 36,300 840 Climbing FlightAware
01:47AM 45.2870 141.7690 182° South 483 556 37,200 1,080 Climbing FlightAware
01:48AM 45.1950 141.7650 182° South 486 559 37,800 540 Climbing FlightAware
01:48AM 45.0920 141.7610 182° South 481 554 38,000 120 Climbing FlightAware
01:49AM 45.0020 141.7560 182° South 480 552 38,000  Level FlightAware
01:50AM 44.8990 141.7510 182° South 479 551 38,000  Level FlightAware
01:51AM 44.8100 141.7470 182° South 485 558 38,000  Level FlightAware
01:51AM 44.7220 141.7440 181° South 485 558 38,000  Level FlightAware
01:52AM 44.6190 141.7390 182° South 485 558 38,000  Level FlightAware
01:53AM 44.5290 141.7350 182° South 486 559 38,000  Level FlightAware
01:53AM 44.4270 141.7310 182° South 480 552 38,000  Level FlightAware
01:54AM 44.3380 141.7280 181° South 480 552 38,000  Level FlightAware
01:55AM 44.2470 141.7240 182° South 480 552 38,000  Level FlightAware
01:55AM 44.1460 141.7200 182° South 480 552 38,000  Level FlightAware
01:56AM 44.0540 141.7160 182° South 480 552 38,000  Level FlightAware
01:57AM 43.9650 141.7130 181° South 480 552 38,000  Level FlightAware
01:58AM 43.8620 141.7090 182° South 481 554 38,000  Level FlightAware
01:58AM 43.7700 141.7050 182° South 482 555 38,000  Level FlightAware
01:59AM 43.6690 141.7010 182° South 484 557 38,000  Level FlightAware
02:00AM 43.5880 141.6980 182° South 485 558 38,000  Level FlightAware
02:01AM 43.4260 141.6920 182° South 485 558 38,000  Level FlightAware
02:02AM 43.3220 141.6960 178° South 485 558 38,000  Level FlightAware
02:02AM 43.2300 141.7000 178° South 484 557 38,000  Level FlightAware
02:03AM 43.1400 141.7030 179° South 483 556 38,000  Level FlightAware
02:04AM 43.0380 141.7060 179° South 483 556 38,000  Level FlightAware
02:04AM 42.9470 141.7090 179° South 482 555 38,000  Level FlightAware
02:05AM 42.8480 141.7120 179° South 482 555 38,000  Level FlightAware
02:06AM 42.7540 141.7150 179° South 482 555 38,000  Level FlightAware
02:06AM 42.6620 141.7170 179° South 483 556 38,000  Level FlightAware
02:07AM 42.5580 141.7200 179° South 485 558 38,000  Level FlightAware
02:08AM 42.4690 141.7230 179° South 486 559 38,000  Level FlightAware
02:08AM 42.3730 141.7260 179° South 495 570 38,000  Level FlightAware
02:09AM 42.2710 141.7300 178° South 496 571 38,000  Level FlightAware
02:10AM 42.1770 141.7320 179° South 497 572 38,000  Level FlightAware
02:11AM 42.0730 141.7360 178° South 495 570 38,000  Level FlightAware
02:11AM 41.9820 141.7380 179° South 485 558 38,000  Level FlightAware
02:12AM 41.8780 141.7340 182° South 484 557 38,000  Level FlightAware
02:13AM 41.7890 141.7200 187° South 483 556 38,000  Level FlightAware
02:14AM 41.6100 141.6930 186° South 482 555 38,000  Level FlightAware
02:15AM 41.4560 141.6700 186° South 483 556 38,000  Level FlightAware
02:16AM 41.2990 141.6460 187° South 484 557 38,000  Level FlightAware
02:18AM 41.1080 141.6180 186° South 484 557 38,000  Level FlightAware
02:19AM 40.9550 141.5950 186° South 487 560 38,000  Level FlightAware
02:20AM 40.8670 141.5820 186° South 486 559 38,000  Level FlightAware
02:20AM 40.7760 141.5690 186° South 486 559 38,000  Level FlightAware
02:21AM 40.6690 141.5530 186° South 486 559 38,000  Level FlightAware
02:22AM 40.5920 141.5420 186° South 482 555 38,000  Level FlightAware
02:23AM 40.4620 141.5230 186° South 488 562 38,000  Level FlightAware
02:23AM 40.3600 141.5080 186° South 486 559 38,000  Level FlightAware
02:24AM 40.2730 141.4960 186° South 483 556 38,000  Level FlightAware
02:25AM 40.1720 141.4810 186° South 472 543 38,000  Level FlightAware
02:26AM 40.0810 141.4680 186° South 473 544 38,000  Level FlightAware
02:26AM 39.9610 141.4500 187° South 486 559 38,000  Level FlightAware
02:27AM 39.8690 141.4370 186° South 488 562 38,000  Level FlightAware
02:28AM 39.7680 141.4220 187° South 488 562 38,000  Level FlightAware
02:29AM 39.6780 141.4090 186° South 482 555 38,000  Level FlightAware
02:29AM 39.5750 141.3940 186° South 487 560 38,000  Level FlightAware
02:30AM 39.4570 141.3780 186° South 486 559 38,000  Level FlightAware
02:31AM 39.3810 141.3680 186° South 486 559 38,000  Level FlightAware
02:32AM 39.2640 141.3490 187° South 486 559 38,000  Level FlightAware
02:32AM 39.1790 141.3370 186° South 486 559 38,000  Level FlightAware
02:33AM 39.0720 141.3220 186° South 483 556 38,000  Level FlightAware
02:34AM 38.9840 141.3090 187° South 477 549 38,000  Level FlightAware
02:34AM 38.9000 141.2970 186° South 474 545 38,000  Level FlightAware
02:35AM 38.8110 141.2850 186° South 474 545 38,000  Level FlightAware
02:36AM 38.6720 141.2640 187° South 38,000  Level FlightAware
02:38AM 38.4150 141.2270 186° South 475 547 38,000  Level FlightAware
02:39AM 38.3220 141.2140 186° South 467 537 38,000  Level FlightAware
02:40AM 38.2000 141.1970 186° South 467 537 38,000  Level FlightAware
02:40AM 38.1270 141.1870 186° South 467 537 38,000  Level FlightAware
02:41AM 38.0260 141.1720 187° South 463 533 38,000 -780 Level FlightAware
02:42AM 37.9010 141.1420 191° South 444 511 36,700 -1,680 Descending FlightAware
02:44AM 37.7340 141.0760 197° South 426 490 34,000 -1,200 Descending FlightAware
02:44AM 37.6300 141.0340 198° South 433 498 34,000  Level FlightAware
02:45AM 37.5530 141.0040 197° South 435 501 34,000  Level FlightAware
02:46AM 37.4910 140.9790 198° South 438 504 34,000  Level FlightAware
02:46AM 37.4000 140.9430 197° South 438 504 34,000  Level FlightAware
02:47AM 37.3120 140.9090 197° South 440 506 34,000  Level FlightAware
02:48AM 37.1810 140.8580 197° South 440 506 34,000 -900 Level FlightAware
02:49AM 37.0530 140.8080 197° South 422 486 32,100 -2,220 Descending FlightAware
02:50AM 36.9530 140.7690 197° South 429 494 29,800 -1,920 Descending FlightAware
02:53AM 36.6748 140.6783 195° South  Level Estimated
02:54AM 36.5483 140.6373 195° South  Level Estimated
02:55AM 36.4219 140.5965 195° South  Level Estimated
02:56AM 36.2954 140.5558 195° South  Level Estimated
02:57AM 36.1688 140.5152 195° South  Level Estimated
02:58AM 36.0423 140.4747 194° South  Level Estimated
02:59AM 35.9158 140.4344 194° South  Level Estimated
02:59AM 36.1200 140.6130 194° South 360 414 15,000  Level FlightAware
02:59AM 36.0420 140.6470 161° South 365 420 14,300 -240 Descending FlightAware
03:00AM 35.9770 140.6750 161° South 365 420 14,700 -1,800 Climbing FlightAware
03:00AM 35.9940 140.7340 70° East 379 436 12,700 -2,400 Descending FlightAware
03:01AM 35.9390 140.7840 144° Southeast 379 436 12,700 -1,500 Level FlightAware
03:01AM 35.9980 140.8920 56° Northeast 369 425 11,100 -2,760 Descending FlightAware
03:02AM 35.9940 140.9220 99° East 362 417 11,100  Level FlightAware
03:02AM 35.9550 140.9880 126° Southeast 342 394 11,100 -360 Level FlightAware
03:02AM 35.9340 141.0000 155° Southeast 324 373 10,800 -900 Descending FlightAware
03:03AM 35.8570 141.0070 176° South 270 311 10,100 -660 Descending FlightAware
03:04AM 35.8290 140.9790 219° Southwest 256 295 9,900 -720 Descending FlightAware
03:05AM 35.7980 140.9340 230° Southwest 242 278 9,200 -600 Descending FlightAware
03:05AM 35.8100 140.8990 293° West 257 296 9,200 -240 Level FlightAware
03:06AM 35.8400 140.8540 309° West 242 278 9,000 -540 Descending FlightAware
03:06AM 35.8550 140.8170 297° West 248 285 8,600 -660 Descending FlightAware
03:07AM 35.8840 140.7490 298° West 240 276 8,100 -780 Descending FlightAware
03:08AM 35.8980 140.7110 294° West 240 276 7,500 -900 Descending FlightAware
03:08AM 35.9160 140.6610 294° West 245 282 7,100 -360 Descending FlightAware
03:09AM 35.9310 140.6210 295° West 247 284 7,100  Level FlightAware
03:09AM 35.9490 140.5700 294° West 247 284 7,100 -300 Level FlightAware
03:10AM 35.9610 140.5370 294° West 243 280 6,800 -900 Descending FlightAware
03:11AM 35.9790 140.4800 291° West 249 287 6,100 -660 Descending FlightAware
03:11AM 35.9810 140.4370 273° West 239 275 6,000 -720 Descending FlightAware
03:12AM 35.9850 140.3680 274° West 232 267 5,100 -600 Descending FlightAware
03:12AM 35.9860 140.3320 272° West 202 232 5,200 60 Climbing FlightAware
03:13AM 35.9860 140.3040 270° West 178 205 5,200 -240 Level FlightAware
03:13AM 35.9870 140.2760 273° West 177 204 5,000 -840 Descending FlightAware
03:14AM 35.9880 140.2440 272° West 173 199 4,400 -900 Descending FlightAware
03:14AM 35.9840 140.2200 258° West 184 212 4,100 -360 Descending FlightAware
03:15AM 35.9670 140.2070 212° Southwest 181 208 4,100  Level FlightAware
03:15AM 35.9630 140.2060 191° South 181 208 4,100  Level FlightAware
03:15AM 35.9470 140.2150 156° South 175 201 4,100 -120 Level FlightAware
03:16AM 35.9260 140.2350 142° Southeast 178 205 4,000 -720 Descending FlightAware
03:16AM 35.8990 140.2580 145° Southeast 174 200 3,300 -1,020 Descending FlightAware
03:17AM 35.8810 140.2710 150° Southeast 174 200 2,900 -900 Descending FlightAware
03:17AM 35.8660 140.2830 147° Southeast 171 197 2,500 -660 Descending FlightAware
03:18AM 35.8320 140.3080 149° Southeast 151 174 2,100 -300 Descending FlightAware
03:19AM 35.8170 140.3190 149° Southeast 151 174 2,100 -900 Level FlightAware
03:19AM 35.7970 140.3340 149° Southeast 148 170 1,200 -1,320 Descending FlightAware
03:20AM 35.7760 140.3500 148° Southeast 146 168 700 -900 Descending FlightAware